Time;durP1;ratioP1;P1;durP2;ratioP2;P2;SDS_P1;SDS_P2;PMS_P1;PMS_P2;Temp;Humidity;BMP_temperature;BMP_pressure;BME280_temperature;BME280_humidity;BME280_pressure;Samples;Min_cycle;Max_cycle;Signal;HPM_P1;HPM_P2
2023/10/15 00:01:20;;;;;;;4.15;0.70;;;;;;;7.09;83.48;101598.59;7404240;19;19918;-70
2023/10/15 00:03:49;;;;;;;4.38;0.57;;;;;;;7.06;83.47;101595.34;7403994;19;19932;-70
2023/10/15 00:06:20;;;;;;;3.90;0.60;;;;;;;7.05;83.52;101599.84;7404746;19;19922;-70
2023/10/15 00:08:50;;;;;;;2.78;0.65;;;;;;;7.02;83.66;101586.75;7404781;19;19922;-70
2023/10/15 00:11:21;;;;;;;5.22;0.80;;;;;;;7.01;84.02;101593.06;7404349;19;19926;-70
2023/10/15 00:13:49;;;;;;;3.45;0.68;;;;;;;7.01;83.55;101602.94;7404953;19;19919;-70
2023/10/15 00:16:21;;;;;;;3.80;0.65;;;;;;;6.99;84.18;101629.84;7403391;19;19922;-70
2023/10/15 00:18:49;;;;;;;3.90;0.68;;;;;;;7.00;84.09;101634.22;7403886;19;19922;-70
2023/10/15 00:21:21;;;;;;;2.88;0.82;;;;;;;7.06;83.89;101638.22;7403906;19;19930;-71
2023/10/15 00:23:50;;;;;;;;;;;;;;;6.98;86.99;101617.47;7406464;19;20021;-71
2023/10/15 00:26:21;;;;;;;3.97;1.10;;;;;;;7.03;84.38;101607.16;7403887;19;19970;-70
2023/10/15 00:28:50;;;;;;;2.72;0.70;;;;;;;7.01;83.87;101611.81;7404034;19;20367;-71
2023/10/15 00:31:18;;;;;;;3.13;0.45;;;;;;;6.98;83.86;101601.41;7404090;19;19943;-71
2023/10/15 00:33:47;;;;;;;3.92;1.52;;;;;;;6.96;83.95;101599.81;7404527;19;19923;-70
2023/10/15 00:36:16;;;;;;;2.58;0.70;;;;;;;6.95;84.25;101603.47;7403832;19;19982;-71
2023/10/15 00:38:47;;;;;;;2.75;0.50;;;;;;;6.89;85.07;101604.88;7403690;19;19918;-70
2023/10/15 00:41:16;;;;;;;1.50;0.60;;;;;;;6.87;85.07;101606.84;7404020;19;19919;-71
2023/10/15 00:43:55;;;;;;;6.05;1.00;;;;;;;6.81;85.92;101596.69;7403095;19;19915;-70
2023/10/15 00:46:25;;;;;;;3.03;0.40;;;;;;;6.78;85.35;101595.09;7402409;19;19919;-70
2023/10/15 00:48:56;;;;;;;8.60;1.08;;;;;;;6.73;85.40;101591.97;7403230;19;19914;-70
2023/10/15 00:51:26;;;;;;;3.35;1.15;;;;;;;6.71;85.45;101598.47;7404023;19;19935;-70
2023/10/15 00:53:58;;;;;;;6.88;0.95;;;;;;;6.67;85.96;101595.22;7403196;19;19918;-70
2023/10/15 00:56:33;;;;;;;6.32;0.70;;;;;;;6.65;85.25;101589.13;7404386;19;20298;-70
2023/10/15 00:59:16;;;;;;;4.63;1.00;;;;;;;6.64;85.36;101589.28;7403072;19;19925;-70
2023/10/15 01:01:53;;;;;;;4.15;0.80;;;;;;;6.61;85.30;101579.66;7402916;19;19926;-70
2023/10/15 01:04:26;;;;;;;2.78;0.60;;;;;;;6.60;85.34;101577.16;7403117;19;19970;-70
2023/10/15 01:07:00;;;;;;;2.53;0.75;;;;;;;6.57;85.59;101577.38;7403459;19;19919;-70
2023/10/15 01:09:31;;;;;;;2.88;0.93;;;;;;;6.55;86.01;101569.50;7403496;19;20250;-70
2023/10/15 01:12:18;;;;;;;2.05;0.55;;;;;;;6.53;85.95;101571.47;7403278;19;19943;-70
2023/10/15 01:14:47;;;;;;;4.28;0.50;;;;;;;6.51;86.18;101567.25;7401914;19;19986;-70
2023/10/15 01:17:15;;;;;;;2.28;0.50;;;;;;;6.49;86.30;101559.34;7403877;19;19940;-70
2023/10/15 01:19:44;;;;;;;1.65;0.50;;;;;;;6.50;86.47;101560.19;7402837;19;19914;-70
2023/10/15 01:22:17;;;;;;;2.75;0.70;;;;;;;6.52;86.47;101560.88;7403538;19;19915;-70
2023/10/15 01:24:53;;;;;;;2.42;0.52;;;;;;;6.51;86.84;101568.09;7402820;19;19927;-70
2023/10/15 01:27:27;;;;;;;2.15;0.77;;;;;;;6.54;86.34;101591.06;7403206;19;19940;-70
2023/10/15 01:29:58;;;;;;;4.50;0.98;;;;;;;6.58;86.13;101593.34;7403169;19;19922;-70
2023/10/15 01:32:30;;;;;;;6.13;0.85;;;;;;;6.62;86.63;101616.19;7402891;19;20338;-70
2023/10/15 01:35:00;;;;;;;3.40;0.73;;;;;;;6.68;86.40;101618.34;7403075;19;19922;-70
2023/10/15 01:37:30;;;;;;;5.35;0.82;;;;;;;6.75;86.35;101629.34;7402012;19;20289;-70
2023/10/15 01:40:27;;;;;;;2.17;0.50;;;;;;;6.82;86.32;101627.81;7402580;19;19923;-70
2023/10/15 01:42:55;;;;;;;3.78;0.50;;;;;;;6.87;85.72;101635.44;7402014;19;19919;-71
2023/10/15 01:45:37;;;;;;;3.90;0.60;;;;;;;6.91;85.29;101620.78;7403181;19;19974;-70
2023/10/15 01:48:13;;;;;;;4.22;0.70;;;;;;;6.96;85.11;101621.25;7402526;19;20399;-70
2023/10/15 01:50:49;;;;;;;2.03;0.55;;;;;;;7.01;84.85;101621.69;7401973;19;20333;-70
2023/10/15 01:53:23;;;;;;;1.67;0.55;;;;;;;7.04;84.80;101616.06;7402525;19;19918;-70
2023/10/15 01:56:02;;;;;;;2.13;0.45;;;;;;;7.03;84.46;101617.06;7402371;19;19988;-70
2023/10/15 01:58:34;;;;;;;3.05;0.68;;;;;;;7.07;84.18;101605.94;7397849;19;20333;-70
2023/10/15 02:01:09;;;;;;;3.67;0.50;;;;;;;7.08;84.21;101620.16;7402266;19;20257;-70
2023/10/15 02:03:37;;;;;;;3.05;0.55;;;;;;;7.07;84.47;101611.28;7401533;19;19915;-71
2023/10/15 02:06:08;;;;;;;4.05;0.80;;;;;;;7.07;84.92;101616.66;7401968;19;19919;-70
2023/10/15 02:08:37;;;;;;;3.20;0.47;;;;;;;7.05;85.40;101610.56;7402112;19;19923;-70
2023/10/15 02:11:21;;;;;;;5.00;0.70;;;;;;;7.01;86.29;101617.19;7401408;19;19926;-71
2023/10/15 02:13:49;;;;;;;;;;;;;;;6.93;87.83;101616.16;7404862;19;20379;-71
2023/10/15 02:16:29;;;;;;;4.70;0.85;;;;;;;6.96;85.96;101614.06;7401946;19;19922;-70
2023/10/15 02:18:58;;;;;;;3.60;0.90;;;;;;;6.94;86.81;101615.19;7401510;19;19919;-70
2023/10/15 02:21:27;;;;;;;1.83;0.50;;;;;;;6.92;86.96;101617.13;7401350;19;19914;-70
2023/10/15 02:24:06;;;;;;;2.97;0.50;;;;;;;6.89;87.62;101612.06;7401396;19;19929;-70
2023/10/15 02:26:38;;;;;;;2.83;0.52;;;;;;;6.86;87.39;101598.97;7398083;19;19926;-70
2023/10/15 02:29:27;;;;;;;3.08;0.57;;;;;;;6.83;87.45;101597.38;7400806;19;19914;-70
2023/10/15 02:31:58;;;;;;;3.95;0.65;;;;;;;6.78;87.78;101599.59;7402013;19;19925;-70
2023/10/15 02:34:27;;;;;;;2.00;0.70;;;;;;;6.75;88.12;101597.22;7401095;19;19911;-70
2023/10/15 02:37:02;;;;;;;3.33;0.65;;;;;;;6.73;88.18;101593.84;7401274;19;19919;-71
2023/10/15 02:39:36;;;;;;;3.20;0.60;;;;;;;6.70;88.15;101599.44;7401524;19;19933;-70
2023/10/15 02:42:08;;;;;;;2.15;0.70;;;;;;;6.67;88.25;101595.22;7400555;19;19923;-70
2023/10/15 02:44:38;;;;;;;3.78;0.80;;;;;;;6.67;88.86;101603.25;7401874;19;19919;-70
2023/10/15 02:47:13;;;;;;;5.15;0.60;;;;;;;6.68;88.46;101604.09;7400928;19;20865;-70
2023/10/15 02:49:53;;;;;;;2.00;0.45;;;;;;;6.68;88.62;101617.47;7402177;19;19914;-70
2023/10/15 02:52:23;;;;;;;4.30;0.70;;;;;;;6.67;88.22;101623.81;7401496;19;19922;-70
2023/10/15 02:54:52;;;;;;;3.75;0.70;;;;;;;6.69;88.13;101627.19;7400111;19;19922;-70
2023/10/15 02:57:24;;;;;;;2.28;0.90;;;;;;;6.68;88.13;101642.44;7400886;19;19918;-70
2023/10/15 02:59:55;;;;;;;3.08;0.88;;;;;;;6.71;87.99;101644.84;7400396;19;19932;-70
2023/10/15 03:02:25;;;;;;;0.95;0.45;;;;;;;6.76;87.80;101657.81;7400220;19;19914;-70
2023/10/15 03:04:55;;;;;;;3.88;0.70;;;;;;;6.82;87.04;101646.56;7400354;19;19922;-70
2023/10/15 03:07:29;;;;;;;4.45;0.70;;;;;;;6.88;86.46;101640.69;7400243;19;20295;-70
2023/10/15 03:09:59;;;;;;;5.40;0.80;;;;;;;6.94;85.77;101644.66;7401936;19;19918;-70
2023/10/15 03:12:33;;;;;;;4.25;0.95;;;;;;;7.00;84.98;101649.44;7405926;19;20609;-70
2023/10/15 03:15:03;;;;;;;4.35;1.00;;;;;;;7.03;84.83;101650.03;7406111;19;19914;-70
2023/10/15 03:17:40;;;;;;;2.10;0.45;;;;;;;7.08;84.72;101641.59;7406308;19;19918;-70
2023/10/15 03:20:22;;;;;;;3.15;0.60;;;;;;;7.11;84.42;101650.22;7405188;19;19918;-70
2023/10/15 03:22:58;;;;;;;2.95;0.47;;;;;;;7.12;84.64;101643.84;7406778;19;19922;-70
2023/10/15 03:25:28;;;;;;;2.53;0.35;;;;;;;7.13;85.01;101637.53;7406172;19;19918;-70
2023/10/15 03:28:00;;;;;;;3.72;0.50;;;;;;;7.14;85.55;101636.56;7405925;19;19926;-70
2023/10/15 03:30:33;;;;;;;3.55;1.13;;;;;;;7.11;85.71;101631.47;7406473;19;19917;-71
2023/10/15 03:33:03;;;;;;;3.88;0.43;;;;;;;7.09;85.93;101636.09;7404757;19;19919;-70
2023/10/15 03:35:38;;;;;;;2.17;0.50;;;;;;;7.09;86.11;101649.50;7405959;19;19915;-70
2023/10/15 03:38:13;;;;;;;1.77;0.35;;;;;;;7.05;86.26;101653.44;7404783;19;20368;-70
2023/10/15 03:40:46;;;;;;;6.32;0.50;;;;;;;7.03;87.00;101662.59;7405703;19;19922;-71
2023/10/15 03:43:20;;;;;;;2.53;0.52;;;;;;;7.00;87.90;101663.69;7404568;19;19946;-70
2023/10/15 03:45:55;;;;;;;1.50;0.45;;;;;;;6.97;88.10;101676.53;7405739;19;19922;-70
2023/10/15 03:48:28;;;;;;;2.72;0.60;;;;;;;6.96;88.98;101686.38;7405178;19;19923;-70
2023/10/15 03:50:58;;;;;;;4.55;0.68;;;;;;;6.93;89.25;101667.06;7404729;19;20252;-70
2023/10/15 03:53:34;;;;;;;4.90;1.90;;;;;;;6.87;88.94;101654.19;7404954;19;19923;-70
2023/10/15 03:56:04;;;;;;;2.25;0.45;;;;;;;6.80;89.46;101651.22;7404991;19;19923;-70
2023/10/15 03:58:36;;;;;;;4.40;0.60;;;;;;;6.73;90.76;101642.84;7405111;19;19981;-70
2023/10/15 04:01:12;;;;;;;2.60;0.47;;;;;;;6.69;90.85;101646.78;7405100;19;19977;-70
2023/10/15 04:03:42;;;;;;;3.55;0.57;;;;;;;6.67;91.09;101655.94;7404622;19;19919;-70
2023/10/15 04:06:13;;;;;;;3.00;1.23;;;;;;;6.63;90.29;101646.47;7404688;19;20263;-70
2023/10/15 04:08:59;;;;;;;1.33;0.70;;;;;;;6.60;90.68;101652.91;7404780;19;19922;-70
2023/10/15 04:11:30;;;;;;;3.35;0.60;;;;;;;6.56;90.94;101656.03;7405098;19;19929;-70
2023/10/15 04:14:08;;;;;;;3.25;0.40;;;;;;;6.54;91.26;101664.19;7404422;19;19929;-70
2023/10/15 04:16:37;;;;;;;5.00;0.70;;;;;;;6.54;90.93;101671.34;7405037;19;19987;-70
2023/10/15 04:19:08;;;;;;;5.60;0.70;;;;;;;6.55;91.06;101673.91;7404114;19;19955;-71
2023/10/15 04:21:38;;;;;;;3.78;0.50;;;;;;;6.54;90.78;101679.38;7402788;19;19922;-70
2023/10/15 04:24:09;;;;;;;2.00;0.57;;;;;;;6.55;90.88;101681.94;7404496;19;19957;-70
2023/10/15 04:26:40;;;;;;;5.38;0.80;;;;;;;6.58;91.42;101678.13;7404099;19;20246;-70
2023/10/15 04:32:00;;;;;;;3.50;0.60;;;;;;;6.59;91.48;101664.63;7403662;19;19915;-71
2023/10/15 04:34:30;;;;;;;3.28;0.57;;;;;;;6.61;91.90;101645.75;7404150;19;19918;-70
2023/10/15 04:37:01;;;;;;;1.25;0.38;;;;;;;6.60;91.25;101625.34;7403369;19;20400;-70
2023/10/15 04:39:29;;;;;;;2.30;0.30;;;;;;;6.57;91.18;101621.06;7403925;19;20213;-70
2023/10/15 04:42:01;;;;;;;3.15;0.50;;;;;;;6.53;91.57;101619.66;7404067;19;19919;-71
2023/10/15 04:44:34;;;;;;;4.18;0.93;;;;;;;6.48;92.10;101621.88;7403142;19;19944;-70
2023/10/15 04:47:08;;;;;;;3.60;0.40;;;;;;;6.47;92.25;101622.03;7403671;19;20355;-71
2023/10/15 04:49:36;;;;;;;1.17;0.40;;;;;;;6.45;92.63;101613.25;7403669;19;20270;-71
2023/10/15 04:52:13;;;;;;;5.10;0.45;;;;;;;6.45;92.63;101618.59;7403530;19;19970;-70
2023/10/15 04:54:43;;;;;;;3.33;0.57;;;;;;;6.43;92.69;101621.41;7403010;19;19917;-70
2023/10/15 04:57:11;;;;;;;4.40;0.50;;;;;;;6.41;92.82;101610.00;7403732;19;19918;-71
2023/10/15 04:59:43;;;;;;;2.60;0.50;;;;;;;6.38;93.71;101610.28;7403205;19;19914;-70
2023/10/15 05:02:11;;;;;;;1.77;0.30;;;;;;;6.33;93.23;101618.69;7403347;19;19929;-70
2023/10/15 05:04:40;;;;;;;5.63;0.80;;;;;;;6.29;93.30;101622.63;7403365;19;20332;-70
2023/10/15 05:07:09;;;;;;;0.65;0.30;;;;;;;6.27;93.34;101619.22;7403563;19;19940;-70
2023/10/15 05:09:40;;;;;;;1.52;0.25;;;;;;;6.28;93.46;101614.72;7403872;19;19914;-70
2023/10/15 05:12:09;;;;;;;3.03;0.50;;;;;;;6.26;93.40;101624.69;7402726;19;19998;-71
2023/10/15 05:14:38;;;;;;;1.88;0.50;;;;;;;6.26;93.36;101627.34;7403109;19;19910;-70
2023/10/15 05:17:09;;;;;;;1.65;0.85;;;;;;;6.25;93.63;101609.63;7402481;19;19918;-70
2023/10/15 05:19:38;;;;;;;8.18;2.13;;;;;;;6.23;93.58;101616.94;7402413;19;19948;-71
2023/10/15 05:22:08;;;;;;;2.15;0.68;;;;;;;6.21;92.91;101614.38;7402752;19;19910;-70
2023/10/15 05:24:37;;;;;;;1.23;0.30;;;;;;;6.19;93.21;101616.34;7403116;19;19933;-71
2023/10/15 05:27:05;;;;;;;2.83;0.45;;;;;;;6.18;93.23;101614.63;7402742;19;20340;-71
2023/10/15 05:29:36;;;;;;;0.88;0.30;;;;;;;6.16;92.80;101621.97;7402661;19;19922;-69
2023/10/15 05:32:04;;;;;;;1.67;0.35;;;;;;;6.13;92.78;101616.84;7402402;19;19922;-71
2023/10/15 05:34:36;;;;;;;1.40;0.20;;;;;;;6.12;92.87;101620.53;7402126;19;20375;-70
2023/10/15 05:37:04;;;;;;;3.65;0.63;;;;;;;6.13;92.60;101618.66;7403334;19;19957;-70
2023/10/15 05:39:33;;;;;;;4.32;0.32;;;;;;;6.15;92.52;101622.09;7402341;19;19923;-70
2023/10/15 05:42:04;;;;;;;1.73;0.20;;;;;;;6.15;92.54;101628.28;7402612;19;19957;-71
2023/10/15 05:44:32;;;;;;;1.38;0.30;;;;;;;6.16;92.57;101632.66;7402574;19;19915;-71
2023/10/15 05:47:01;;;;;;;2.63;0.32;;;;;;;6.18;92.86;101641.38;7403293;19;20286;-71
2023/10/15 05:49:29;;;;;;;1.85;0.20;;;;;;;6.20;92.83;101641.28;7401735;19;19915;-71
2023/10/15 05:52:00;;;;;;;2.05;0.40;;;;;;;6.22;92.69;101650.00;7402912;19;19960;-70
2023/10/15 05:54:29;;;;;;;1.00;0.20;;;;;;;6.23;92.07;101649.03;7402045;19;20344;-71
2023/10/15 05:56:58;;;;;;;3.40;0.30;;;;;;;6.28;92.07;101660.19;7402944;19;20373;-70
2023/10/15 05:59:26;;;;;;;1.17;0.22;;;;;;;6.34;91.91;101657.00;7402559;19;20215;-72
2023/10/15 06:01:55;;;;;;;2.58;0.28;;;;;;;6.41;92.10;101662.69;7402723;19;20353;-71
2023/10/15 06:04:23;;;;;;;1.48;0.15;;;;;;;6.42;92.23;101654.53;7400962;19;19915;-71
2023/10/15 06:06:52;;;;;;;1.23;0.40;;;;;;;6.40;91.94;101653.78;7402688;19;19923;-71
2023/10/15 06:09:23;;;;;;;3.33;0.50;;;;;;;6.38;92.32;101647.75;7401780;19;19920;-70
2023/10/15 06:11:52;;;;;;;3.75;0.30;;;;;;;6.37;91.94;101662.09;7401906;19;19914;-71
2023/10/15 06:14:23;;;;;;;1.85;0.25;;;;;;;6.38;92.07;101653.91;7401059;19;20241;-70
2023/10/15 06:16:52;;;;;;;2.05;0.35;;;;;;;6.38;92.02;101661.94;7400698;19;19919;-69
2023/10/15 06:19:21;;;;;;;2.42;0.63;;;;;;;6.39;92.05;101662.78;7401369;19;19930;-70
2023/10/15 06:21:49;;;;;;;2.33;0.20;;;;;;;6.42;92.64;101680.44;7401133;19;19952;-69
2023/10/15 06:24:18;;;;;;;1.65;0.40;;;;;;;6.42;92.75;101699.16;7401868;19;19926;-69
2023/10/15 06:26:49;;;;;;;2.83;0.50;;;;;;;6.39;92.73;101690.41;7401579;19;20274;-69
2023/10/15 06:29:17;;;;;;;4.72;0.60;;;;;;;6.38;92.54;101691.38;7401630;19;19935;-69
2023/10/15 06:31:47;;;;;;;0.75;0.60;;;;;;;6.36;92.72;101682.66;7401097;19;19921;-69
2023/10/15 06:34:15;;;;;;;2.58;0.30;;;;;;;6.33;92.88;101661.50;7401648;19;19964;-70
2023/10/15 06:36:47;;;;;;;1.30;0.38;;;;;;;6.31;92.98;101679.50;7401541;19;20500;-71
2023/10/15 06:39:16;;;;;;;4.20;0.77;;;;;;;6.33;92.96;101690.94;7402712;19;19919;-70
2023/10/15 06:41:44;;;;;;;2.65;0.77;;;;;;;6.37;93.21;101702.22;7401002;19;19919;-71
2023/10/15 06:44:15;;;;;;;4.40;0.60;;;;;;;6.42;92.94;101710.72;7398920;19;19936;-70
2023/10/15 06:46:44;;;;;;;2.88;0.80;;;;;;;6.46;92.71;101719.34;7401041;19;19923;-71
2023/10/15 06:49:12;;;;;;;1.10;0.32;;;;;;;6.50;92.81;101727.00;7401299;19;19919;-71
2023/10/15 06:51:42;;;;;;;0.50;0.30;;;;;;;6.51;93.04;101727.84;7401945;19;19961;-70
2023/10/15 06:54:11;;;;;;;0.82;0.30;;;;;;;6.53;92.98;101734.75;7400492;19;20341;-70
2023/10/15 06:56:40;;;;;;;1.35;0.32;;;;;;;6.54;93.49;101735.59;7401232;19;19919;-71
2023/10/15 06:59:10;;;;;;;2.15;0.70;;;;;;;6.57;93.27;101748.72;7400709;19;19919;-71
2023/10/15 07:01:42;;;;;;;3.50;0.38;;;;;;;6.57;93.29;101729.97;7400814;19;19914;-70
2023/10/15 07:04:12;;;;;;;2.45;0.40;;;;;;;6.54;93.18;101724.88;7400034;19;19922;-71
2023/10/15 07:06:41;;;;;;;0.65;0.30;;;;;;;6.55;93.22;101734.63;7400700;19;19998;-71
2023/10/15 07:09:09;;;;;;;2.58;1.05;;;;;;;6.56;93.52;101741.69;7399947;19;20020;-71
2023/10/15 07:11:38;;;;;;;1.65;0.30;;;;;;;6.57;92.71;101748.72;7400016;19;19944;-71
2023/10/15 07:14:08;;;;;;;1.48;0.40;;;;;;;6.58;92.56;101737.88;7399665;19;20393;-71
2023/10/15 07:16:40;;;;;;;2.08;0.50;;;;;;;6.56;92.37;101747.03;7399583;19;19931;-70
2023/10/15 07:19:11;;;;;;;3.05;0.40;;;;;;;6.56;92.23;101749.72;7399448;19;20274;-70
2023/10/15 07:21:41;;;;;;;3.00;0.40;;;;;;;6.52;91.69;101758.97;7399277;19;19944;-71
2023/10/15 07:24:11;;;;;;;1.02;0.30;;;;;;;6.49;91.14;101757.41;7399205;19;19922;-70
2023/10/15 07:26:40;;;;;;;0.98;0.28;;;;;;;6.47;90.92;101755.84;7398096;19;19918;-70
2023/10/15 07:29:09;;;;;;;2.40;0.22;;;;;;;6.45;91.20;101763.13;7399209;19;19922;-71
2023/10/15 07:31:38;;;;;;;2.08;0.57;;;;;;;6.43;90.89;101759.75;7397987;19;19922;-71
2023/10/15 07:34:08;;;;;;;2.30;0.60;;;;;;;6.42;91.17;101756.22;7398395;19;19922;-70
2023/10/15 07:36:39;;;;;;;5.25;0.50;;;;;;;6.44;91.36;101770.31;7398733;19;19923;-71
2023/10/15 07:39:08;;;;;;;2.90;0.43;;;;;;;6.49;91.26;101769.94;7398807;19;19922;-71
2023/10/15 07:41:37;;;;;;;5.03;0.85;;;;;;;6.57;91.14;101760.28;7398768;19;19911;-70
2023/10/15 07:44:07;;;;;;;0.88;0.38;;;;;;;6.70;91.17;101765.44;7398262;19;20285;-70
2023/10/15 07:46:36;;;;;;;1.15;0.35;;;;;;;6.81;90.87;101784.16;7398020;19;19914;-70
2023/10/15 07:49:04;;;;;;;5.10;0.50;;;;;;;6.94;90.62;101787.47;7398806;19;20498;-70
2023/10/15 07:51:33;;;;;;;1.15;0.50;;;;;;;7.10;90.38;101795.88;7397527;19;19933;-70
2023/10/15 07:54:04;;;;;;;4.25;0.52;;;;;;;7.18;89.75;101796.06;7398273;19;19931;-70
2023/10/15 07:56:34;;;;;;;1.98;0.30;;;;;;;7.21;89.56;101811.88;7402199;19;19918;-71
2023/10/15 07:59:04;;;;;;;1.02;0.52;;;;;;;7.21;89.60;101787.75;7403958;19;19919;-71
2023/10/15 08:01:32;;;;;;;4.60;0.77;;;;;;;7.17;90.80;101791.69;7404449;19;19962;-70
2023/10/15 08:04:02;;;;;;;0.95;0.30;;;;;;;7.16;90.85;101791.84;7403602;19;20025;-70
2023/10/15 08:06:31;;;;;;;2.53;0.50;;;;;;;7.14;91.04;101791.09;7404301;19;19919;-71
2023/10/15 08:09:00;;;;;;;4.95;0.50;;;;;;;7.11;90.80;101791.38;7403801;19;19923;-70
2023/10/15 08:11:31;;;;;;;2.30;0.60;;;;;;;7.11;91.50;101794.91;7404398;19;19968;-70
2023/10/15 08:14:00;;;;;;;1.58;0.40;;;;;;;7.09;91.05;101799.53;7403219;19;19919;-71
2023/10/15 08:16:29;;;;;;;1.50;0.30;;;;;;;7.10;90.68;101806.59;7404106;19;19974;-71
2023/10/15 08:18:59;;;;;;;2.83;0.40;;;;;;;7.10;90.91;101805.75;7403491;19;19915;-71
2023/10/15 08:21:27;;;;;;;2.63;0.30;;;;;;;7.14;90.99;101815.22;7402706;19;19915;-71
2023/10/15 08:23:56;;;;;;;4.20;0.80;;;;;;;7.20;90.92;101828.09;7404020;19;20340;-71
2023/10/15 08:26:24;;;;;;;3.70;0.50;;;;;;;7.34;90.94;101829.56;7404095;19;19927;-70
2023/10/15 08:28:55;;;;;;;3.75;0.63;;;;;;;7.51;89.95;101820.91;7403983;19;20345;-71
2023/10/15 08:31:24;;;;;;;3.58;0.63;;;;;;;7.74;89.50;101834.00;7403814;19;19930;-71
2023/10/15 08:33:53;;;;;;;1.67;0.38;;;;;;;7.89;89.15;101847.91;7404175;19;20352;-71
2023/10/15 08:36:22;;;;;;;1.52;0.40;;;;;;;7.88;87.14;101853.41;7403628;19;19978;-71
2023/10/15 08:38:51;;;;;;;1.48;0.30;;;;;;;7.81;87.70;101860.31;7403996;19;19935;-71
2023/10/15 08:41:23;;;;;;;2.17;0.40;;;;;;;7.77;89.30;101862.38;7403520;19;19914;-70
2023/10/15 08:43:56;;;;;;;1.45;0.50;;;;;;;7.74;89.29;101876.06;7403876;19;19910;-71
2023/10/15 08:46:25;;;;;;;2.88;0.52;;;;;;;7.71;90.18;101879.88;7403529;19;19918;-71
2023/10/15 08:48:55;;;;;;;3.22;0.45;;;;;;;7.67;89.59;101875.78;7403960;19;19915;-71
2023/10/15 08:51:23;;;;;;;2.35;0.32;;;;;;;7.63;88.48;101894.94;7403405;19;19914;-71
2023/10/15 08:53:52;;;;;;;2.30;0.70;;;;;;;7.52;88.34;101898.53;7403924;19;19914;-70
2023/10/15 08:56:23;;;;;;;1.83;0.30;;;;;;;7.44;87.57;101889.47;7403350;19;19978;-70
2023/10/15 08:58:54;;;;;;;3.72;0.60;;;;;;;7.38;88.46;101895.38;7403773;19;19921;-71
2023/10/15 09:01:26;;;;;;;2.75;1.13;;;;;;;7.28;88.53;101890.78;7403378;19;19922;-71
2023/10/15 09:03:55;;;;;;;2.08;0.40;;;;;;;7.23;89.65;101892.16;7403748;19;19915;-71
2023/10/15 09:06:23;;;;;;;3.33;0.73;;;;;;;7.18;89.97;101895.22;7403338;19;19918;-70
2023/10/15 09:08:53;;;;;;;0.65;0.35;;;;;;;7.11;90.74;101883.34;7401908;19;19939;-71
2023/10/15 09:11:22;;;;;;;1.80;0.40;;;;;;;7.10;90.57;101896.84;7403161;19;19915;-71
2023/10/15 09:13:54;;;;;;;1.90;0.60;;;;;;;7.08;89.54;101902.31;7402767;19;19914;-71
2023/10/15 09:16:23;;;;;;;;;;;;;;;7.03;90.97;101904.53;7406084;19;20376;-70
2023/10/15 09:18:55;;;;;;;1.90;0.38;;;;;;;7.14;90.45;101914.38;7402669;19;19919;-71
2023/10/15 09:21:26;;;;;;;3.85;0.30;;;;;;;7.23;89.81;101908.22;7403918;19;20468;-71
2023/10/15 09:23:55;;;;;;;1.33;0.65;;;;;;;7.33;89.90;101911.84;7403229;19;19930;-71
2023/10/15 09:26:23;;;;;;;3.08;0.32;;;;;;;7.47;90.26;101916.00;7402471;19;19923;-71
2023/10/15 09:28:52;;;;;;;6.05;0.57;;;;;;;7.41;90.46;101901.31;7402223;19;19937;-71
2023/10/15 09:31:22;;;;;;;1.92;0.40;;;;;;;7.36;90.67;101903.53;7402714;19;20261;-71
2023/10/15 09:33:52;;;;;;;0.30;0.30;;;;;;;7.28;90.68;101906.88;7402365;19;19919;-71
2023/10/15 09:36:26;;;;;;;3.67;0.47;;;;;;;7.26;91.09;101905.28;7402320;19;19948;-71
2023/10/15 09:38:56;;;;;;;1.98;0.40;;;;;;;7.25;90.75;101904.44;7402552;19;19953;-71
2023/10/15 09:41:26;;;;;;;1.95;0.50;;;;;;;7.36;90.94;101903.53;7401212;19;19918;-71
2023/10/15 09:43:57;;;;;;;4.47;0.60;;;;;;;7.46;90.59;101917.84;7402745;19;19970;-71
2023/10/15 09:46:26;;;;;;;2.88;0.50;;;;;;;7.61;89.96;101921.03;7401888;19;19914;-71
2023/10/15 09:48:56;;;;;;;1.13;0.50;;;;;;;7.77;88.46;101924.06;7402361;19;19955;-71
2023/10/15 09:51:32;;;;;;;2.97;0.47;;;;;;;7.88;88.89;101926.69;7402328;19;19916;-71
2023/10/15 09:54:02;;;;;;;5.22;0.45;;;;;;;7.97;88.11;101922.34;7402522;19;19922;-70
2023/10/15 09:56:33;;;;;;;1.88;0.40;;;;;;;8.06;87.21;101927.78;7402021;19;19970;-70
2023/10/15 09:59:02;;;;;;;1.15;0.38;;;;;;;8.23;88.14;101923.59;7401917;19;20345;-71
2023/10/15 10:01:33;;;;;;;4.93;0.73;;;;;;;8.48;86.34;101933.03;7402806;19;19915;-71
2023/10/15 10:04:18;;;;;;;3.25;0.60;;;;;;;8.52;84.72;101919.19;7401696;19;19914;-71
2023/10/15 10:07:18;;;;;;;5.28;1.88;;;;;;;8.55;82.74;101920.72;7402016;19;19925;-70
2023/10/15 10:10:18;;;;;;;2.78;0.40;;;;;;;8.75;82.25;101927.84;7401756;19;20282;-71
2023/10/15 10:13:08;;;;;;;2.22;0.40;;;;;;;8.88;82.06;101917.69;7401672;19;19919;-70
2023/10/15 10:15:47;;;;;;;1.40;0.80;;;;;;;9.13;82.36;101934.22;7401178;19;19914;-70
2023/10/15 10:18:16;;;;;;;10.63;5.18;;;;;;;9.32;81.57;101929.69;7401607;19;19915;-70
2023/10/15 10:20:48;;;;;;;5.38;2.58;;;;;;;9.39;79.44;101929.97;7397822;19;19969;-70
2023/10/15 10:23:22;;;;;;;7.00;2.60;;;;;;;9.58;80.52;101932.63;7401306;19;19925;-71
2023/10/15 10:25:52;;;;;;;4.82;0.90;;;;;;;9.78;80.25;101936.97;7401606;19;19918;-70
2023/10/15 10:28:22;;;;;;;2.70;0.30;;;;;;;9.96;78.02;101946.00;7401029;19;19923;-70
2023/10/15 10:30:55;;;;;;;2.95;0.90;;;;;;;10.15;77.77;101937.00;7401584;19;19915;-70
2023/10/15 10:33:40;;;;;;;4.13;0.55;;;;;;;10.35;76.72;101945.88;7400569;19;20273;-70
2023/10/15 10:36:14;;;;;;;1.95;1.73;;;;;;;10.59;77.34;101939.91;7400720;19;19919;-70
2023/10/15 10:38:46;;;;;;;1.73;0.40;;;;;;;10.56;77.97;101948.31;7401212;19;19959;-70
2023/10/15 10:41:16;;;;;;;3.90;0.50;;;;;;;10.49;78.07;101945.34;7400826;19;19926;-70
2023/10/15 10:43:46;;;;;;;5.00;0.60;;;;;;;10.60;77.47;101942.47;7400867;19;19911;-70
2023/10/15 10:46:23;;;;;;;1.65;0.68;;;;;;;10.42;74.66;101955.88;7399615;19;20349;-71
2023/10/15 10:49:07;;;;;;;1.88;0.40;;;;;;;10.34;79.00;101968.41;7400273;19;19918;-71
2023/10/15 10:51:36;;;;;;;1.92;0.55;;;;;;;10.29;79.30;101968.84;7400470;19;19915;-70
2023/10/15 10:54:31;;;;;;;2.13;0.30;;;;;;;10.25;79.24;101974.69;7400053;19;19914;-70
2023/10/15 10:57:07;;;;;;;1.63;0.52;;;;;;;10.41;76.13;101977.56;7400721;19;19914;-70
2023/10/15 10:59:36;;;;;;;1.63;0.40;;;;;;;10.35;75.86;101981.75;7400096;19;20266;-71
2023/10/15 11:02:11;;;;;;;2.25;0.63;;;;;;;10.26;75.14;101976.38;7400164;19;19932;-71
2023/10/15 11:04:40;;;;;;;2.63;0.55;;;;;;;10.18;72.24;101974.41;7400395;19;19976;-71
2023/10/15 11:07:10;;;;;;;2.25;0.35;;;;;;;10.08;69.12;101992.44;7398456;19;19918;-71
2023/10/15 11:09:42;;;;;;;1.80;0.50;;;;;;;10.02;70.98;101983.09;7399523;19;19974;-71
2023/10/15 11:12:11;;;;;;;1.38;0.38;;;;;;;10.18;71.47;101973.59;7398939;19;20589;-70
2023/10/15 11:14:40;;;;;;;3.00;0.65;;;;;;;10.44;67.99;101980.81;7399496;19;19927;-71
2023/10/15 11:17:10;;;;;;;3.10;0.70;;;;;;;10.78;67.60;101977.53;7398737;19;19926;-71
2023/10/15 11:19:39;;;;;;;5.25;0.88;;;;;;;10.94;67.26;101988.50;7399385;19;19919;-71
2023/10/15 11:22:08;;;;;;;5.13;1.10;;;;;;;10.70;67.53;101985.53;7399006;19;19918;-71
2023/10/15 11:24:36;;;;;;;4.50;1.20;;;;;;;10.62;68.74;101963.84;7399550;19;20287;-71
2023/10/15 11:27:12;;;;;;;3.78;0.60;;;;;;;10.88;67.26;101987.25;7399420;19;19923;-71
2023/10/15 11:29:41;;;;;;;5.75;0.90;;;;;;;11.03;68.92;101984.88;7399604;19;20030;-71
2023/10/15 11:32:11;;;;;;;4.80;1.40;;;;;;;11.03;70.58;101982.19;7404292;19;20031;-71
2023/10/15 11:34:42;;;;;;;1.27;0.45;;;;;;;10.73;70.23;101983.38;7404943;19;19941;-71
2023/10/15 11:37:11;;;;;;;1.80;0.30;;;;;;;10.70;71.11;101990.94;7404814;19;19906;-71
2023/10/15 11:39:47;;;;;;;3.90;0.98;;;;;;;10.83;70.84;101986.00;7404224;19;19922;-71
2023/10/15 11:42:19;;;;;;;5.10;0.90;;;;;;;10.98;69.60;101992.56;7404827;19;19927;-71
2023/10/15 11:44:55;;;;;;;4.50;0.93;;;;;;;11.02;70.88;101993.13;7404952;19;19915;-71
2023/10/15 11:47:24;;;;;;;3.47;0.50;;;;;;;11.28;70.31;101986.81;7404373;19;19918;-72
2023/10/15 11:49:54;;;;;;;8.40;1.30;;;;;;;11.56;69.81;101994.81;7404540;19;19919;-71
2023/10/15 11:52:22;;;;;;;7.60;1.13;;;;;;;11.74;68.22;101987.56;7404309;19;19934;-71
2023/10/15 11:54:51;;;;;;;4.45;0.43;;;;;;;11.85;68.93;102011.63;7404735;19;19915;-71
2023/10/15 11:57:28;;;;;;;11.25;0.80;;;;;;;11.53;67.33;102000.50;7404212;19;19918;-71